Time;durP1;ratioP1;P1;durP2;ratioP2;P2;SDS_P1;SDS_P2;PMS_P1;PMS_P2;Temp;Humidity;BMP_temperature;BMP_pressure;BME280_temperature;BME280_humidity;BME280_pressure;Samples;Min_cycle;Max_cycle;Signal;HPM_P1;HPM_P2
2023/10/08 00:02:13;;;;;;;10.50;3.50;;;13.30;98.00;;;;;;5071239;28;20487;-62
2023/10/08 00:04:44;;;;;;;9.00;3.70;;;13.20;98.00;;;;;;5071496;28;20455;-64
2023/10/08 00:07:11;;;;;;;8.70;3.90;;;13.10;98.00;;;;;;5054147;28;20534;-63
2023/10/08 00:09:42;;;;;;;6.80;3.67;;;13.00;98.00;;;;;;5071327;28;20492;-63
2023/10/08 00:12:10;;;;;;;12.03;4.40;;;13.00;98.00;;;;;;5071138;28;20454;-63
2023/10/08 00:14:44;;;;;;;9.20;4.20;;;13.00;98.00;;;;;;5071171;28;20945;-64
2023/10/08 00:17:13;;;;;;;8.03;3.77;;;12.90;98.00;;;;;;5071337;28;20452;-63
2023/10/08 00:19:42;;;;;;;8.03;3.93;;;13.00;98.00;;;;;;5071164;28;20492;-63
2023/10/08 00:22:10;;;;;;;11.97;4.00;;;13.00;98.00;;;;;;5069647;28;20811;-63
2023/10/08 00:24:40;;;;;;;7.70;3.53;;;13.10;98.00;;;;;;5071265;28;20459;-64
2023/10/08 00:27:07;;;;;;;8.80;4.10;;;13.10;98.00;;;;;;5070923;28;20471;-62
2023/10/08 00:29:43;;;;;;;9.30;4.43;;;13.40;98.00;;;;;;5071056;28;20512;-63
2023/10/08 00:32:13;;;;;;;8.03;4.10;;;13.50;98.00;;;;;;5071104;28;20643;-63
2023/10/08 00:34:42;;;;;;;9.17;3.70;;;13.40;98.00;;;;;;5070881;28;20437;-62
2023/10/08 00:37:13;;;;;;;8.70;4.60;;;13.30;98.00;;;;;;5070955;28;20509;-63
2023/10/08 00:39:43;;;;;;;10.20;4.10;;;13.10;98.00;;;;;;5070727;28;20488;-62
2023/10/08 00:42:12;;;;;;;7.60;3.80;;;13.00;98.00;;;;;;5070852;28;20542;-62
2023/10/08 00:44:47;;;;;;;11.77;4.30;;;13.20;98.00;;;;;;5070881;28;21018;-62
2023/10/08 00:47:16;;;;;;;6.93;4.03;;;13.10;98.00;;;;;;5072302;28;20546;-64
2023/10/08 00:49:54;;;;;;;7.53;3.90;;;13.10;98.00;;;;;;5074883;28;20832;-63
2023/10/08 00:52:29;;;;;;;5.90;3.40;;;13.30;98.00;;;;;;5074814;28;20468;-62
2023/10/08 00:55:11;;;;;;;9.17;4.37;;;13.30;98.00;;;;;;5074822;28;20448;-63
2023/10/08 00:57:42;;;;;;;10.00;4.70;;;13.10;98.00;;;;;;5074777;28;20579;-63
2023/10/08 01:00:17;;;;;;;9.37;4.03;;;13.00;98.00;;;;;;5057562;28;20541;-62
2023/10/08 01:02:46;;;;;;;8.07;4.10;;;13.00;98.00;;;;;;5074926;28;20491;-63
2023/10/08 01:05:15;;;;;;;7.30;3.93;;;12.90;98.00;;;;;;5074536;28;20445;-62
2023/10/08 01:07:45;;;;;;;8.67;3.83;;;13.00;98.00;;;;;;5074605;28;20448;-64
2023/10/08 01:10:19;;;;;;;16.43;3.33;;;13.10;98.00;;;;;;5074485;28;20452;-63
2023/10/08 01:12:55;;;;;;;7.93;3.60;;;13.00;98.00;;;;;;5074477;28;20506;-64
2023/10/08 01:15:28;;;;;;;6.30;3.90;;;13.00;98.00;;;;;;5074738;28;20456;-63
2023/10/08 01:18:00;;;;;;;9.40;3.90;;;13.00;98.00;;;;;;5074434;28;20453;-62
2023/10/08 01:20:37;;;;;;;7.47;3.47;;;12.90;98.00;;;;;;5074731;28;20484;-63
2023/10/08 01:23:09;;;;;;;8.13;3.70;;;13.10;98.00;;;;;;5074614;28;21049;-62
2023/10/08 01:25:38;;;;;;;6.53;3.60;;;13.10;98.00;;;;;;5074935;28;20455;-63
2023/10/08 01:28:14;;;;;;;9.80;3.80;;;13.00;98.00;;;;;;5074194;28;20495;-63
2023/10/08 01:30:42;;;;;;;8.57;3.47;;;12.90;98.00;;;;;;5074414;28;20996;-63
2023/10/08 01:33:14;;;;;;;10.30;3.60;;;12.80;98.00;;;;;;5073988;28;20972;-63
2023/10/08 01:35:41;;;;;;;9.00;4.10;;;12.70;98.00;;;;;;5056899;28;20547;-62
2023/10/08 01:38:13;;;;;;;6.63;3.63;;;12.80;98.00;;;;;;5074287;28;20451;-63
2023/10/08 01:40:42;;;;;;;6.43;3.40;;;12.70;98.00;;;;;;5073964;28;21159;-63
2023/10/08 01:43:13;;;;;;;11.00;3.93;;;12.60;98.00;;;;;;5073996;28;20455;-63
2023/10/08 01:45:43;;;;;;;8.43;3.70;;;12.60;98.00;;;;;;5073901;28;20460;-62
2023/10/08 01:48:10;;;;;;;7.43;3.70;;;12.50;98.00;;;;;;5073689;28;20829;-63
2023/10/08 01:50:38;;;;;;;7.90;3.20;;;12.60;98.00;;;;;;5073709;28;20470;-64
2023/10/08 01:53:08;;;;;;;6.80;3.90;;;12.60;98.00;;;;;;5073485;28;20453;-63
2023/10/08 01:55:48;;;;;;;7.73;3.70;;;12.70;98.00;;;;;;5074024;28;20531;-62
2023/10/08 01:58:17;;;;;;;8.10;3.90;;;12.80;98.00;;;;;;5073223;28;20814;-63
2023/10/08 02:00:46;;;;;;;8.17;3.40;;;12.80;98.00;;;;;;5073515;28;20481;-63
2023/10/08 02:03:15;;;;;;;6.30;3.23;;;12.90;98.00;;;;;;5073500;28;20484;-63
2023/10/08 02:05:43;;;;;;;7.57;3.40;;;12.80;98.00;;;;;;5073607;28;20456;-63
2023/10/08 02:08:11;;;;;;;8.73;4.00;;;12.70;98.00;;;;;;5073309;28;20463;-62
2023/10/08 02:10:42;;;;;;;8.80;3.73;;;12.60;98.00;;;;;;5073555;28;20459;-62
2023/10/08 02:13:10;;;;;;;10.27;4.13;;;12.50;98.00;;;;;;5073570;28;20502;-62
2023/10/08 02:15:38;;;;;;;8.00;3.80;;;12.50;98.00;;;;;;5073437;28;20599;-63
2023/10/08 02:18:06;;;;;;;9.63;3.43;;;12.40;98.00;;;;;;5073206;28;20478;-64
2023/10/08 02:20:33;;;;;;;8.10;3.93;;;12.40;98.00;;;;;;5073079;28;21007;-62
2023/10/08 02:23:01;;;;;;;5.70;3.30;;;12.20;98.00;;;;;;5073107;28;20459;-63
2023/10/08 02:25:28;;;;;;;10.20;4.17;;;12.00;98.00;;;;;;5072787;28;20471;-64
2023/10/08 02:27:57;;;;;;;6.67;3.60;;;12.10;98.00;;;;;;5073078;28;20461;-63
2023/10/08 02:30:24;;;;;;;9.17;3.83;;;12.10;98.00;;;;;;5072973;28;20478;-63
2023/10/08 02:32:52;;;;;;;8.10;3.43;;;12.10;98.00;;;;;;5073167;28;20451;-62
2023/10/08 02:35:19;;;;;;;9.00;3.73;;;12.10;98.00;;;;;;5073198;28;20544;-62
2023/10/08 02:37:47;;;;;;;6.57;3.20;;;12.10;98.00;;;;;;5055097;28;20447;-63
2023/10/08 02:40:19;;;;;;;5.13;3.23;;;12.10;98.00;;;;;;5072826;28;21047;-63
2023/10/08 02:42:49;;;;;;;8.27;3.27;;;11.90;98.00;;;;;;5073079;28;20463;-64
2023/10/08 02:45:18;;;;;;;8.50;4.00;;;11.90;98.00;;;;;;5072975;28;20467;-64
2023/10/08 02:47:45;;;;;;;11.13;3.77;;;11.80;98.00;;;;;;5072719;28;20468;-63
2023/10/08 02:50:17;;;;;;;7.43;4.00;;;11.80;98.00;;;;;;5072470;28;20546;-63
2023/10/08 02:52:45;;;;;;;8.60;3.70;;;11.90;98.00;;;;;;5072781;28;20505;-63
2023/10/08 02:55:26;;;;;;;9.53;3.83;;;12.00;98.00;;;;;;5055029;28;20484;-63
2023/10/08 02:57:55;;;;;;;8.57;3.90;;;12.10;98.00;;;;;;5072813;28;20455;-64
2023/10/08 03:00:29;;;;;;;11.20;4.00;;;11.90;98.00;;;;;;5072593;28;20483;-63
2023/10/08 03:02:57;;;;;;;7.73;3.43;;;11.70;98.00;;;;;;5072933;28;20699;-63
2023/10/08 03:05:29;;;;;;;7.40;3.30;;;11.60;98.00;;;;;;5072760;28;20795;-62
2023/10/08 03:07:57;;;;;;;6.07;3.30;;;11.60;98.00;;;;;;5072464;28;20963;-62
2023/10/08 03:10:32;;;;;;;10.40;3.93;;;11.60;98.00;;;;;;5071771;28;20452;-63
2023/10/08 03:13:04;;;;;;;7.80;3.63;;;11.70;98.00;;;;;;5072332;28;20450;-63
2023/10/08 03:15:40;;;;;;;7.50;3.70;;;11.60;98.00;;;;;;5072460;28;20525;-63
2023/10/08 03:18:12;;;;;;;6.30;3.50;;;11.70;98.00;;;;;;5072361;28;20453;-63
2023/10/08 03:20:42;;;;;;;8.47;3.77;;;11.60;98.00;;;;;;5072072;28;20494;-63
2023/10/08 03:23:33;;;;;;;7.63;3.40;;;11.60;98.00;;;;;;5072028;28;20449;-63
2023/10/08 03:26:09;;;;;;;6.43;3.50;;;11.70;98.00;;;;;;5072179;28;20450;-62
2023/10/08 03:28:37;;;;;;;8.13;3.50;;;11.60;98.00;;;;;;5072104;28;20451;-62
2023/10/08 03:31:05;;;;;;;8.10;3.80;;;11.50;98.00;;;;;;5071955;28;20447;-62
2023/10/08 03:33:37;;;;;;;9.37;4.23;;;11.60;98.00;;;;;;5071740;28;20536;-62
2023/10/08 03:36:09;;;;;;;6.53;3.80;;;11.50;98.00;;;;;;5071851;28;20453;-62
2023/10/08 03:38:45;;;;;;;9.23;4.00;;;11.60;98.00;;;;;;5071632;28;20493;-62
2023/10/08 03:41:18;;;;;;;7.57;3.37;;;11.60;98.00;;;;;;5071546;28;20514;-62
2023/10/08 03:43:52;;;;;;;8.30;3.87;;;11.60;98.00;;;;;;5071727;28;20727;-63
2023/10/08 03:46:26;;;;;;;7.73;3.63;;;11.40;98.00;;;;;;5071611;28;20466;-62
2023/10/08 03:48:57;;;;;;;9.80;4.00;;;11.50;98.00;;;;;;5071656;28;20451;-63
2023/10/08 03:51:27;;;;;;;8.40;3.93;;;11.40;98.00;;;;;;5071449;28;20457;-62
2023/10/08 03:54:15;;;;;;;10.13;3.37;;;11.40;98.00;;;;;;5054414;28;20465;-63
2023/10/08 03:56:45;;;;;;;7.90;3.53;;;11.20;98.00;;;;;;5071708;28;20529;-63
2023/10/08 03:59:14;;;;;;;9.20;3.80;;;11.20;98.00;;;;;;5071234;28;20456;-62
2023/10/08 04:01:44;;;;;;;11.40;4.20;;;11.20;98.00;;;;;;5071347;28;20485;-62
2023/10/08 04:04:13;;;;;;;6.70;3.33;;;11.30;98.00;;;;;;5053302;28;20476;-64
2023/10/08 04:06:48;;;;;;;7.23;3.10;;;11.40;98.00;;;;;;5071260;28;20882;-63
2023/10/08 04:09:23;;;;;;;6.30;3.30;;;11.40;98.00;;;;;;5071536;28;20454;-62
2023/10/08 04:12:03;;;;;;;6.50;3.40;;;11.40;98.00;;;;;;5071362;28;20455;-63
2023/10/08 04:14:31;;;;;;;5.50;2.90;;;11.20;98.00;;;;;;5071545;28;20453;-63
2023/10/08 04:16:59;;;;;;;6.80;3.03;;;11.20;98.00;;;;;;5071392;28;20456;-64
2023/10/08 04:19:27;;;;;;;8.57;3.47;;;11.30;98.00;;;;;;5071010;28;20457;-63
2023/10/08 04:21:55;;;;;;;5.97;3.20;;;11.30;98.00;;;;;;5070217;28;20540;-63
2023/10/08 04:24:34;;;;;;;7.70;3.10;;;11.40;98.00;;;;;;5071102;28;20456;-63
2023/10/08 04:27:02;;;;;;;6.77;3.27;;;11.40;98.00;;;;;;5071250;28;20456;-62
2023/10/08 04:29:32;;;;;;;5.30;2.80;;;11.30;98.00;;;;;;5071135;28;20459;-62
2023/10/08 04:32:08;;;;;;;4.53;2.70;;;11.30;98.00;;;;;;5071012;28;20650;-62
2023/10/08 04:34:35;;;;;;;13.77;3.20;;;11.30;98.00;;;;;;5071211;28;20987;-63
2023/10/08 04:37:04;;;;;;;10.33;3.30;;;11.30;98.00;;;;;;5071109;28;20450;-64
2023/10/08 04:39:34;;;;;;;5.33;2.60;;;11.40;98.00;;;;;;5071143;28;20446;-62
2023/10/08 04:42:06;;;;;;;6.63;2.80;;;11.30;98.00;;;;;;5070999;28;21053;-63
2023/10/08 04:44:33;;;;;;;7.27;3.20;;;11.10;98.00;;;;;;5071223;28;20522;-62
2023/10/08 04:47:06;;;;;;;7.27;3.67;;;11.30;98.00;;;;;;5071047;28;20446;-62
2023/10/08 04:49:34;;;;;;;7.90;3.33;;;11.30;98.00;;;;;;5070988;28;20452;-62
2023/10/08 04:52:08;;;;;;;6.27;3.10;;;11.30;98.00;;;;;;5070835;28;20466;-62
2023/10/08 04:54:40;;;;;;;6.20;3.03;;;11.20;98.00;;;;;;5071008;28;20824;-63
2023/10/08 04:57:14;;;;;;;5.47;3.03;;;11.20;98.00;;;;;;5070480;28;20866;-64
2023/10/08 04:59:43;;;;;;;6.80;3.00;;;11.40;98.00;;;;;;5070688;28;20456;-62
2023/10/08 05:02:19;;;;;;;6.67;2.90;;;11.40;98.00;;;;;;5052979;28;20484;-62
2023/10/08 05:04:56;;;;;;;6.73;3.37;;;11.30;98.00;;;;;;5070741;28;20449;-62
2023/10/08 05:10:30;;;;;;;7.10;3.00;;;11.30;98.00;;;;;;5070047;28;21163;-62
2023/10/08 05:13:14;;;;;;;5.20;2.93;;;11.30;98.00;;;;;;5070557;28;20447;-62
2023/10/08 05:15:50;;;;;;;6.07;3.07;;;11.50;98.00;;;;;;5070580;28;20542;-63
2023/10/08 05:18:23;;;;;;;8.23;3.10;;;11.40;98.00;;;;;;5070429;28;20489;-64
2023/10/08 05:21:03;;;;;;;9.03;3.40;;;11.40;98.00;;;;;;5070555;28;20488;-63
2023/10/08 05:23:53;;;;;;;5.27;2.97;;;11.50;98.00;;;;;;5070702;28;20766;-62
2023/10/08 05:26:41;;;;;;;8.97;3.00;;;11.40;98.00;;;;;;5070840;28;20495;-62
2023/10/08 05:34:51;;;;;;;5.47;2.70;;;11.10;98.00;;;;;;5072554;28;20493;-64
2023/10/08 05:37:32;;;;;;;7.10;3.30;;;11.10;98.00;;;;;;5074148;28;20445;-62
2023/10/08 05:40:13;;;;;;;6.47;2.80;;;11.00;98.00;;;;;;5073883;28;20463;-62
2023/10/08 05:42:49;;;;;;;8.60;3.60;;;11.00;98.00;;;;;;5073905;28;20479;-62
2023/10/08 05:45:30;;;;;;;6.80;2.83;;;11.00;98.00;;;;;;5073929;28;20452;-62
2023/10/08 05:48:15;;;;;;;6.90;2.80;;;11.00;98.00;;;;;;5074066;28;20934;-62
2023/10/08 05:50:55;;;;;;;4.00;2.63;;;11.10;98.00;;;;;;5073843;28;20470;-63
2023/10/08 05:53:29;;;;;;;5.23;3.03;;;11.20;98.00;;;;;;5073609;28;20450;-62
2023/10/08 05:56:16;;;;;;;7.13;3.63;;;11.30;98.00;;;;;;5073808;28;20465;-63
2023/10/08 05:58:46;;;;;;;4.57;2.90;;;11.30;98.00;;;;;;5073748;28;20550;-58
2023/10/08 06:01:29;;;;;;;10.40;3.40;;;11.30;98.00;;;;;;5073531;28;20493;-58
2023/10/08 06:04:11;;;;;;;4.50;2.70;;;11.20;98.00;;;;;;5074025;28;20449;-58
2023/10/08 06:06:47;;;;;;;5.63;2.80;;;11.30;98.00;;;;;;5058271;28;20529;-59
2023/10/08 06:09:22;;;;;;;6.63;2.80;;;11.30;98.00;;;;;;5073443;28;20455;-58
2023/10/08 06:12:09;;;;;;;5.57;2.87;;;11.40;98.00;;;;;;5073681;28;20462;-58
2023/10/08 06:20:09;;;;;;;7.47;3.20;;;11.60;98.00;;;;;;5062981;28;20464;-58
2023/10/08 06:22:37;;;;;;;7.43;3.70;;;11.60;98.00;;;;;;5074545;28;21002;-58
2023/10/08 06:25:18;;;;;;;7.80;3.87;;;11.80;98.00;;;;;;5073811;28;20458;-58
2023/10/08 06:27:46;;;;;;;6.53;3.27;;;11.80;98.00;;;;;;5073650;28;20453;-57
2023/10/08 06:30:16;;;;;;;7.37;2.83;;;12.10;98.00;;;;;;5072485;28;20451;-58
2023/10/08 06:32:47;;;;;;;7.53;3.50;;;12.20;98.00;;;;;;5073187;28;20450;-58
2023/10/08 06:35:17;;;;;;;7.53;3.60;;;12.10;98.00;;;;;;5073291;28;20482;-58
2023/10/08 06:37:49;;;;;;;7.83;3.40;;;12.00;98.00;;;;;;5073284;28;20475;-58
2023/10/08 06:43:21;;;;;;;8.63;3.30;;;12.00;98.00;;;;;;5150277;27;20553;-58
2023/10/08 06:45:52;;;;;;;9.10;4.27;;;12.10;98.00;;;;;;5129489;27;20496;-57
2023/10/08 06:48:20;;;;;;;7.53;3.67;;;12.20;98.00;;;;;;5129490;28;20448;-58
2023/10/08 06:50:51;;;;;;;6.03;3.20;;;12.30;98.00;;;;;;5129894;28;20537;-58
2023/10/08 06:53:19;;;;;;;8.43;4.03;;;12.20;98.00;;;;;;5129291;28;20452;-58
2023/10/08 06:55:48;;;;;;;8.03;3.60;;;12.20;98.00;;;;;;5129520;27;20506;-58
2023/10/08 06:58:17;;;;;;;5.77;3.30;;;12.30;98.00;;;;;;5129264;28;20456;-58
2023/10/08 07:00:48;;;;;;;11.13;3.90;;;12.30;98.00;;;;;;5129516;28;20546;-57
2023/10/08 07:03:17;;;;;;;7.93;4.10;;;12.50;98.00;;;;;;5129206;27;20449;-57
2023/10/08 07:05:53;;;;;;;7.60;3.80;;;12.60;98.00;;;;;;5129212;28;20449;-57
2023/10/08 07:08:23;;;;;;;7.20;3.60;;;12.70;98.00;;;;;;5129137;27;20462;-57
2023/10/08 07:10:50;;;;;;;10.90;4.40;;;12.60;98.00;;;;;;5129474;27;20859;-58
2023/10/08 07:13:21;;;;;;;9.77;4.10;;;12.70;98.00;;;;;;5128968;28;20448;-58
2023/10/08 07:15:50;;;;;;;7.63;3.43;;;12.80;98.00;;;;;;5129121;28;20480;-58
2023/10/08 07:18:24;;;;;;;9.20;3.93;;;12.80;98.00;;;;;;5128714;28;20453;-57
2023/10/08 07:20:54;;;;;;;9.37;4.07;;;12.90;98.00;;;;;;5128976;28;20464;-56
2023/10/08 07:23:29;;;;;;;6.40;3.50;;;13.10;98.00;;;;;;5128957;28;20484;-57
2023/10/08 07:25:58;;;;;;;6.10;3.33;;;13.30;98.00;;;;;;5128854;28;20446;-56
2023/10/08 07:28:30;;;;;;;6.63;3.87;;;13.20;98.00;;;;;;5128621;28;20452;-57
2023/10/08 07:30:58;;;;;;;10.87;4.37;;;13.30;98.00;;;;;;5127331;28;20510;-58
2023/10/08 07:33:36;;;;;;;9.37;3.50;;;13.40;98.00;;;;;;5128604;28;20456;-58
2023/10/08 07:36:11;;;;;;;7.83;4.03;;;13.60;98.00;;;;;;5128596;28;20477;-57
2023/10/08 07:38:39;;;;;;;6.50;3.40;;;13.50;98.00;;;;;;5128625;28;20493;-58
2023/10/08 07:41:06;;;;;;;12.80;3.70;;;13.60;98.00;;;;;;5128226;28;20549;-58
2023/10/08 07:43:35;;;;;;;5.43;3.23;;;13.80;98.00;;;;;;5128449;28;20448;-57
2023/10/08 07:46:03;;;;;;;9.27;4.20;;;13.80;98.00;;;;;;5128460;28;20449;-58
2023/10/08 07:48:30;;;;;;;8.73;3.73;;;13.80;98.00;;;;;;5128233;28;20974;-58
2023/10/08 07:50:58;;;;;;;6.37;3.63;;;13.80;98.00;;;;;;5128377;27;20449;-57
2023/10/08 07:53:37;;;;;;;7.17;3.70;;;14.00;98.00;;;;;;5120741;28;20955;-58
2023/10/08 07:56:06;;;;;;;7.70;3.57;;;14.00;98.00;;;;;;5114590;28;20554;-57
2023/10/08 07:58:35;;;;;;;8.93;4.10;;;13.90;98.00;;;;;;5114541;28;20521;-57
2023/10/08 08:01:06;;;;;;;7.07;3.50;;;13.90;98.00;;;;;;5113245;28;20553;-59
2023/10/08 08:03:36;;;;;;;8.77;3.97;;;13.80;98.00;;;;;;5114542;28;20940;-57
2023/10/08 08:06:05;;;;;;;6.30;3.47;;;13.90;98.00;;;;;;5114492;28;20947;-58
2023/10/08 08:08:33;;;;;;;7.60;3.70;;;13.90;98.00;;;;;;5114423;28;20443;-57
2023/10/08 08:11:05;;;;;;;7.03;3.47;;;14.10;98.00;;;;;;5114628;28;20880;-57
2023/10/08 08:13:33;;;;;;;6.97;3.53;;;14.10;98.00;;;;;;5114549;28;20450;-57
2023/10/08 08:16:09;;;;;;;7.57;3.80;;;14.20;98.00;;;;;;5114184;28;20982;-57
2023/10/08 08:18:38;;;;;;;12.70;4.50;;;14.60;98.00;;;;;;5114529;28;20459;-56
2023/10/08 08:21:14;;;;;;;8.70;4.37;;;14.90;98.00;;;;;;5114123;28;20447;-57
2023/10/08 08:23:41;;;;;;;9.33;4.37;;;15.00;98.00;;;;;;5112980;28;20483;-58
2023/10/08 08:26:12;;;;;;;7.50;4.17;;;15.00;98.00;;;;;;5113848;28;20449;-58
2023/10/08 08:28:40;;;;;;;11.00;4.20;;;15.00;98.00;;;;;;5113850;28;20462;-59
2023/10/08 08:31:14;;;;;;;7.53;4.47;;;15.10;98.00;;;;;;5114023;28;20875;-58
2023/10/08 08:33:59;;;;;;;8.27;4.10;;;15.30;98.00;;;;;;5113764;28;20818;-59
2023/10/08 08:36:27;;;;;;;7.80;3.57;;;15.40;98.00;;;;;;5114094;28;20443;-58
2023/10/08 08:38:55;;;;;;;8.33;4.43;;;15.50;98.00;;;;;;5113632;28;21016;-58
2023/10/08 08:41:23;;;;;;;9.30;4.07;;;15.60;98.00;;;;;;5112336;28;20451;-58
2023/10/08 08:43:57;;;;;;;8.47;3.97;;;15.80;98.00;;;;;;5112252;28;20968;-57
2023/10/08 08:46:35;;;;;;;6.63;3.70;;;16.00;98.00;;;;;;5113718;28;20455;-58
2023/10/08 08:49:04;;;;;;;10.47;4.00;;;16.30;98.00;;;;;;5113499;28;20450;-58
2023/10/08 08:51:32;;;;;;;8.53;4.10;;;16.40;98.00;;;;;;5112595;28;20512;-57
2023/10/08 08:54:00;;;;;;;7.47;3.90;;;16.50;98.00;;;;;;5112101;28;20549;-58
2023/10/08 08:56:29;;;;;;;8.80;3.73;;;16.60;98.00;;;;;;5111384;28;20544;-58
2023/10/08 08:58:59;;;;;;;10.50;3.77;;;16.70;98.00;;;;;;5113131;28;20454;-58
2023/10/08 09:01:26;;;;;;;8.80;3.43;;;17.00;98.00;;;;;;5095272;28;20829;-58
2023/10/08 09:04:00;;;;;;;5.73;3.03;;;17.20;98.00;;;;;;5113031;28;20769;-57
2023/10/08 09:06:28;;;;;;;7.83;3.30;;;17.40;98.00;;;;;;5112312;28;20825;-58
2023/10/08 09:09:11;;;;;;;7.10;3.40;;;17.60;98.00;;;;;;5111613;28;20529;-57
2023/10/08 09:11:42;;;;;;;6.07;3.20;;;17.90;98.00;;;;;;5113083;28;20478;-59
2023/10/08 09:14:11;;;;;;;8.40;3.07;;;18.20;98.00;;;;;;5111662;28;20469;-58
2023/10/08 09:16:39;;;;;;;6.00;3.30;;;18.50;98.00;;;;;;5111851;28;20455;-58
2023/10/08 09:19:15;;;;;;;7.13;2.80;;;18.80;98.00;;;;;;5112912;28;20816;-60
2023/10/08 09:21:44;;;;;;;4.90;2.80;;;19.20;98.00;;;;;;5285471;22;20501;-63
2023/10/08 09:24:11;;;;;;;6.73;2.70;;;19.50;98.00;;;;;;5052242;28;20454;-64
2023/10/08 09:26:39;;;;;;;8.13;3.20;;;19.90;98.00;;;;;;5053328;28;20481;-62
2023/10/08 09:29:09;;;;;;;5.67;2.93;;;20.20;98.00;;;;;;5052903;28;20451;-65
2023/10/08 09:31:36;;;;;;;5.27;2.90;;;20.50;98.00;;;;;;5052839;28;20454;-63
2023/10/08 09:34:04;;;;;;;7.20;3.50;;;20.80;98.00;;;;;;5052912;28;20858;-64
2023/10/08 09:36:34;;;;;;;6.97;3.20;;;20.90;98.00;;;;;;5051852;28;20461;-64
2023/10/08 09:39:05;;;;;;;6.77;3.20;;;21.00;98.00;;;;;;5052433;28;20453;-64
2023/10/08 09:41:33;;;;;;;3.73;2.80;;;21.10;98.00;;;;;;5053115;28;20460;-67
2023/10/08 09:44:00;;;;;;;7.00;3.10;;;21.10;98.00;;;;;;5052686;28;20513;-66
2023/10/08 09:46:33;;;;;;;8.37;3.40;;;21.00;98.00;;;;;;5052394;28;20456;-66
2023/10/08 09:49:06;;;;;;;6.80;3.20;;;21.00;98.00;;;;;;5052425;28;20457;-66
2023/10/08 09:54:16;;;;;;;4.43;2.73;;;20.80;98.00;;;;;;5126746;23;20493;-64
2023/10/08 09:56:44;;;;;;;12.03;3.60;;;20.70;98.00;;;;;;5030281;28;20457;-66
2023/10/08 09:59:14;;;;;;;5.27;2.90;;;20.70;98.00;;;;;;5030343;28;20509;-66
2023/10/08 10:01:44;;;;;;;6.30;2.97;;;20.70;98.00;;;;;;5031556;28;20495;-66
2023/10/08 10:04:12;;;;;;;4.93;2.70;;;20.80;98.00;;;;;;5030745;28;20546;-66
2023/10/08 10:06:39;;;;;;;4.53;2.77;;;20.80;98.00;;;;;;5031773;28;20454;-66
2023/10/08 10:09:15;;;;;;;5.80;2.87;;;21.10;98.00;;;;;;5031584;28;20492;-66
2023/10/08 10:11:49;;;;;;;6.73;3.03;;;21.20;98.00;;;;;;5031489;28;20462;-66
2023/10/08 10:14:17;;;;;;;5.87;3.00;;;21.30;98.00;;;;;;5031389;28;20461;-66
2023/10/08 10:16:48;;;;;;;6.83;2.83;;;21.30;98.00;;;;;;5031157;28;20508;-66
2023/10/08 10:19:19;;;;;;;5.30;2.80;;;21.30;98.00;;;;;;5031222;28;20730;-66
2023/10/08 10:21:48;;;;;;;7.70;3.63;;;21.30;98.00;;;;;;5030092;28;20461;-66
2023/10/08 10:24:32;;;;;;;6.37;2.97;;;21.40;98.00;;;;;;5031361;28;20559;-67
2023/10/08 10:27:14;;;;;;;5.67;3.27;;;21.50;98.00;;;;;;5031357;28;20454;-66
2023/10/08 10:29:43;;;;;;;9.63;3.70;;;21.50;98.00;;;;;;5031494;28;20504;-66
2023/10/08 10:32:13;;;;;;;6.60;3.10;;;21.60;98.00;;;;;;5031198;28;20996;-66
2023/10/08 10:34:40;;;;;;;6.97;3.40;;;21.60;98.00;;;;;;5031093;28;20562;-66
2023/10/08 10:37:19;;;;;;;6.50;3.00;;;21.60;98.00;;;;;;5031080;28;20447;-67
2023/10/08 10:39:54;;;;;;;5.57;3.03;;;21.50;98.00;;;;;;5031092;28;20455;-66
2023/10/08 10:42:25;;;;;;;7.23;3.20;;;21.50;98.00;;;;;;5031154;28;20489;-66
2023/10/08 10:44:53;;;;;;;14.33;2.77;;;21.40;98.00;;;;;;5031018;28;20450;-66
2023/10/08 10:47:26;;;;;;;5.87;3.50;;;21.40;98.00;;;;;;5031317;28;20454;-66
2023/10/08 10:50:10;;;;;;;5.67;2.73;;;21.50;98.00;;;;;;5031055;28;20557;-66
2023/10/08 10:52:44;;;;;;;5.50;3.07;;;21.50;98.00;;;;;;5030877;28;20458;-67
2023/10/08 10:55:22;;;;;;;4.53;2.90;;;21.70;98.00;;;;;;5029731;28;20470;-66
2023/10/08 10:57:55;;;;;;;5.50;3.23;;;21.90;98.00;;;;;;5031174;28;20473;-66
2023/10/08 11:03:23;;;;;;;5.90;3.23;;;22.00;98.00;;;;;;5013034;28;20493;-66
2023/10/08 11:05:54;;;;;;;6.90;2.93;;;22.00;98.00;;;;;;5030883;28;20821;-66
2023/10/08 11:08:24;;;;;;;7.57;3.43;;;22.00;98.00;;;;;;5031174;28;20525;-66
2023/10/08 11:10:53;;;;;;;7.53;3.37;;;22.00;98.00;;;;;;5030865;28;20446;-66
2023/10/08 11:13:28;;;;;;;6.23;3.13;;;22.20;98.00;;;;;;5031025;28;20962;-66
2023/10/08 11:15:58;;;;;;;5.30;3.23;;;22.80;98.00;;;;;;5031123;28;20450;-66
2023/10/08 11:18:28;;;;;;;8.53;3.27;;;23.20;98.00;;;;;;5031212;28;20509;-66
2023/10/08 11:21:15;;;;;;;8.03;3.00;;;23.70;97.30;;;;;;5030787;28;20493;-66
2023/10/08 11:23:52;;;;;;;5.93;3.20;;;24.10;95.10;;;;;;5030890;28;20850;-66
2023/10/08 11:26:38;;;;;;;6.60;3.37;;;24.00;95.10;;;;;;5030811;28;20453;-66
2023/10/08 11:29:14;;;;;;;5.60;3.07;;;23.90;95.60;;;;;;5033082;28;20450;-66
2023/10/08 11:31:44;;;;;;;6.70;3.40;;;23.70;95.80;;;;;;5034598;28;20458;-67
2023/10/08 11:34:13;;;;;;;6.00;3.03;;;23.60;95.80;;;;;;5034324;28;20454;-67
2023/10/08 11:36:55;;;;;;;5.10;3.10;;;23.70;96.80;;;;;;5034278;28;20450;-67
2023/10/08 11:39:22;;;;;;;6.30;3.30;;;24.00;96.70;;;;;;5034507;28;20823;-67
2023/10/08 11:42:06;;;;;;;5.00;2.97;;;24.40;94.40;;;;;;5034473;28;20458;-66
2023/10/08 11:44:36;;;;;;;6.57;3.30;;;24.40;95.50;;;;;;5034286;28;20486;-67
2023/10/08 11:47:11;;;;;;;6.03;3.40;;;24.30;95.00;;;;;;5034248;28;20880;-67
2023/10/08 11:49:46;;;;;;;6.40;3.40;;;24.20;95.20;;;;;;5034748;28;20846;-67
2023/10/08 11:52:15;;;;;;;6.93;3.50;;;24.10;95.50;;;;;;5034472;28;20529;-67
2023/10/08 11:54:42;;;;;;;5.73;2.90;;;24.40;95.70;;;;;;5034105;28;20972;-66
2023/10/08 11:57:11;;;;;;;5.60;3.43;;;24.80;94.60;;;;;;5033937;28;20964;-67
2023/10/08 11:59:41;;;;;;;5.77;3.37;;;25.40;94.20;;;;;;5033867;28;20592;-67
2023/10/08 12:02:08;;;;;;;6.53;3.70;;;25.70;92.90;;;;;;5033741;28;20520;-66
2023/10/08 12:04:36;;;;;;;7.90;3.27;;;25.90;90.70;;;;;;5033799;28;20804;-67
2023/10/08 12:07:07;;;;;;;7.33;3.70;;;26.00;90.50;;;;;;5033832;28;20451;-66
2023/10/08 12:09:37;;;;;;;5.53;3.07;;;26.00;91.80;;;;;;5034052;28;20795;-66
2023/10/08 12:12:09;;;;;;;5.17;3.20;;;26.00;91.80;;;;;;5032592;28;20545;-66
2023/10/08 12:14:37;;;;;;;7.20;3.37;;;25.80;91.20;;;;;;5032302;28;20541;-66
2023/10/08 12:17:11;;;;;;;8.23;3.50;;;25.60;92.30;;;;;;5031054;28;20482;-67
2023/10/08 12:19:40;;;;;;;11.53;3.30;;;25.20;93.30;;;;;;5033650;28;21022;-67
2023/10/08 12:22:08;;;;;;;8.03;2.83;;;25.20;93.20;;;;;;5033488;28;20443;-66
2023/10/08 12:24:35;;;;;;;5.13;3.33;;;25.10;93.20;;;;;;5033548;28;20510;-67
2023/10/08 12:27:03;;;;;;;5.63;3.23;;;25.10;91.90;;;;;;5053281;28;20450;-66
2023/10/08 12:29:32;;;;;;;9.43;3.20;;;25.10;91.30;;;;;;5052060;28;20536;-66
2023/10/08 12:31:59;;;;;;;5.03;2.87;;;25.60;91.50;;;;;;5053323;28;20452;-67
2023/10/08 12:34:29;;;;;;;5.00;2.97;;;26.30;90.10;;;;;;5053020;28;20465;-67
2023/10/08 12:36:56;;;;;;;7.93;3.10;;;26.80;88.70;;;;;;5052605;28;20454;-67
2023/10/08 12:39:28;;;;;;;5.60;3.07;;;27.30;89.30;;;;;;5051734;28;20461;-67
2023/10/08 12:41:57;;;;;;;6.60;3.43;;;27.80;88.00;;;;;;5053183;28;20512;-67
2023/10/08 12:44:24;;;;;;;6.43;3.53;;;28.10;85.70;;;;;;5052740;28;20481;-67
2023/10/08 12:46:51;;;;;;;6.97;3.30;;;28.50;85.00;;;;;;5053068;28;20457;-67
2023/10/08 12:49:21;;;;;;;7.27;3.80;;;28.60;85.00;;;;;;5052644;28;20982;-67
2023/10/08 12:51:49;;;;;;;6.68;3.40;;;28.70;83.80;;;;;;5051841;28;20450;-67
2023/10/08 12:54:21;;;;;;;7.90;3.33;;;28.80;82.40;;;;;;5052662;28;20245;-67
2023/10/08 12:56:49;;;;;;;7.20;3.23;;;28.80;82.50;;;;;;5053139;28;20935;-67
2023/10/08 12:59:21;;;;;;;7.80;3.57;;;28.70;83.50;;;;;;5052859;28;20477;-67
2023/10/08 13:01:51;;;;;;;5.03;3.13;;;28.80;83.50;;;;;;5052707;28;20545;-68
2023/10/08 13:04:25;;;;;;;6.90;3.37;;;29.10;82.40;;;;;;5052353;28;20488;-67
2023/10/08 13:06:57;;;;;;;9.27;3.23;;;29.20;82.10;;;;;;5052738;28;20455;-67
2023/10/08 13:09:24;;;;;;;6.53;3.57;;;29.30;82.30;;;;;;5052384;28;20454;-67
2023/10/08 13:11:51;;;;;;;11.57;3.60;;;29.20;81.90;;;;;;5052519;28;20454;-67
2023/10/08 13:14:18;;;;;;;9.83;3.53;;;29.10;82.10;;;;;;5051915;28;20446;-67
2023/10/08 13:16:45;;;;;;;5.10;3.10;;;29.10;81.00;;;;;;5052398;28;20446;-67
2023/10/08 13:19:15;;;;;;;6.43;3.20;;;29.10;81.00;;;;;;5052114;28;20473;-67
2023/10/08 13:21:43;;;;;;;9.70;3.73;;;29.00;81.30;;;;;;5052432;28;20497;-68
2023/10/08 13:24:12;;;;;;;6.20;3.40;;;29.00;81.20;;;;;;5052013;28;20490;-66
2023/10/08 13:26:41;;;;;;;5.23;2.93;;;29.20;81.00;;;;;;5052262;28;20446;-67
2023/10/08 13:29:09;;;;;;;6.33;3.30;;;29.40;80.50;;;;;;5052114;28;20504;-65
2023/10/08 13:31:36;;;;;;;8.07;3.57;;;29.30;80.40;;;;;;5052174;28;20951;-65